Terminal Aerodrome Forecast
Issued by NWS

Home | Current Version | Previous Version | Text Only | Print | Product List | Glossary On
Versions: 1 2 3 4 5 6 7 8 9 10 11 12
000
FTUS45 KLKN 251740
TAFEKO
TAF
KEKO 251740Z 2518/2618 VRB04KT P6SM FEW200
     FM252100 30012KT P6SM SKC
     FM260300 05006KT P6SM SKC=

USA.gov is the U.S. government's official web portal to all federal, state and local government web resources and services.